createdAt,value
2023-04-06T00:04:03.479Z,98659.41
2023-04-06T00:09:05.584Z,98656.22
2023-04-06T00:14:07.862Z,98660.25
2023-04-06T00:19:09.847Z,98658.31
2023-04-06T00:24:12.018Z,98654.50
2023-04-06T00:29:13.930Z,98662.06
2023-04-06T00:34:17.089Z,98648.56
2023-04-06T00:39:20.961Z,98652.44
2023-04-06T00:44:23.567Z,98645.81
2023-04-06T00:49:25.596Z,98650.88
2023-04-06T00:54:27.682Z,98643.66
2023-04-06T00:59:30.033Z,98639.88
2023-04-06T01:04:34.102Z,98647.81
2023-04-06T01:09:37.067Z,98651.97
2023-04-06T01:14:47.849Z,98647.00
2023-04-06T01:19:52.316Z,98645.63
2023-04-06T01:25:01.004Z,98642.00
2023-04-06T01:30:21.824Z,98633.38
2023-04-06T01:35:31.902Z,98631.78
2023-04-06T01:40:48.139Z,98634.56
2023-04-06T01:45:52.058Z,98632.59
2023-04-06T01:50:56.990Z,98623.78
2023-04-06T01:56:05.454Z,98622.34
2023-04-06T02:01:14.852Z,98626.63
2023-04-06T02:06:26.488Z,98633.22
2023-04-06T02:11:28.683Z,98633.03
2023-04-06T02:16:31.670Z,98629.53
2023-04-06T02:21:33.944Z,98628.72
2023-04-06T02:26:35.982Z,98620.00
2023-04-06T02:31:37.952Z,98625.94
2023-04-06T02:36:41.224Z,98621.03
2023-04-06T02:41:43.317Z,98620.22
2023-04-06T02:46:47.140Z,98618.13
2023-04-06T02:51:49.133Z,98619.50
2023-04-06T02:56:56.540Z,98623.09
2023-04-06T03:02:05.458Z,98626.94
2023-04-06T03:07:08.151Z,98618.47
2023-04-06T03:12:13.566Z,98621.25
2023-04-06T03:17:38.326Z,98612.09
2023-04-06T03:22:45.426Z,98619.03
2023-04-06T03:27:50.936Z,98621.94
2023-04-06T03:32:54.993Z,98624.88
2023-04-06T03:37:59.617Z,98630.78
2023-04-06T03:43:02.834Z,98629.38
2023-04-06T03:48:08.487Z,98637.63
2023-04-06T03:53:13.200Z,98642.81
2023-04-06T03:58:15.184Z,98642.97
2023-04-06T04:03:17.250Z,98652.66
2023-04-06T04:08:19.230Z,98648.75
2023-04-06T04:13:21.447Z,98653.38
2023-04-06T04:18:25.845Z,98652.88
2023-04-06T04:23:27.768Z,98642.09
2023-04-06T04:28:29.676Z,98646.28
2023-04-06T04:33:32.039Z,98644.69
2023-04-06T04:38:36.855Z,98640.13
2023-04-06T04:43:39.340Z,98646.78
2023-04-06T04:48:41.686Z,98642.44
2023-04-06T04:53:44.384Z,98641.13
2023-04-06T04:58:55.315Z,98644.91
2023-04-06T05:03:58.803Z,98659.16
2023-04-06T05:09:01.190Z,98667.63
2023-04-06T05:14:07.404Z,98662.53
2023-04-06T05:19:09.759Z,98661.72
2023-04-06T05:24:17.637Z,98666.59
2023-04-06T05:29:22.393Z,98667.75
2023-04-06T05:34:24.914Z,98673.50
2023-04-06T05:39:27.381Z,98679.97
2023-04-06T05:44:29.844Z,98675.84
2023-04-06T05:49:43.345Z,98673.78
2023-04-06T05:54:51.637Z,98676.81
2023-04-06T05:59:53.666Z,98677.72
2023-04-06T06:04:57.756Z,98668.28
2023-04-06T06:10:01.493Z,98670.59
2023-04-06T06:15:08.586Z,98669.63
2023-04-06T06:20:14.930Z,98673.09
2023-04-06T06:25:18.145Z,98674.38
2023-04-06T06:30:23.458Z,98677.41
2023-04-06T06:35:26.793Z,98671.47
2023-04-06T06:40:29.448Z,98675.81
2023-04-06T06:45:32.320Z,98673.41
2023-04-06T06:50:34.297Z,98681.69
2023-04-06T06:55:36.224Z,98686.56
2023-04-06T07:00:38.450Z,98679.81
2023-04-06T07:05:50.131Z,98676.84
2023-04-06T07:10:59.588Z,98684.00
2023-04-06T07:16:01.514Z,98685.50
2023-04-06T07:21:04.603Z,98686.69
2023-04-06T07:26:06.763Z,98678.94
2023-04-06T07:31:08.843Z,98684.47
2023-04-06T07:36:11.088Z,98686.81
2023-04-06T07:41:13.300Z,98681.63
2023-04-06T07:46:15.581Z,98677.59
2023-04-06T07:51:18.635Z,98677.72
2023-04-06T07:56:22.574Z,98682.66
2023-04-06T08:01:24.589Z,98678.09
2023-04-06T08:06:27.706Z,98686.13
2023-04-06T08:11:29.722Z,98681.56
2023-04-06T08:16:31.769Z,98681.63
2023-04-06T08:21:35.020Z,98675.97
2023-04-06T08:26:36.985Z,98685.41
2023-04-06T08:31:39.177Z,98681.13
2023-04-06T08:36:41.536Z,98677.72
2023-04-06T08:41:44.470Z,98683.50
2023-04-06T08:46:46.564Z,98674.94
2023-04-06T08:51:48.844Z,98671.41
2023-04-06T08:56:51.570Z,98675.81
2023-04-06T09:01:55.798Z,98671.94
2023-04-06T09:06:57.935Z,98680.25
2023-04-06T09:12:06.734Z,98682.94
2023-04-06T09:17:08.750Z,98680.31
2023-04-06T09:22:10.843Z,98671.16
2023-04-06T09:27:13.969Z,98665.56
2023-04-06T09:32:18.052Z,98668.00
2023-04-06T09:37:20.606Z,98665.53
2023-04-06T09:42:26.764Z,98652.34
2023-04-06T09:47:29.924Z,98655.16
2023-04-06T09:52:52.366Z,98641.28
2023-04-06T09:58:04.457Z,98641.47
2023-04-06T10:03:18.386Z,98643.03
2023-04-06T10:08:24.230Z,98649.63
2023-04-06T10:13:26.443Z,98643.56
2023-04-06T10:18:28.782Z,98636.50
2023-04-06T10:23:38.458Z,98636.06
2023-04-06T10:28:42.735Z,98633.41
2023-04-06T10:33:57.102Z,98636.28
2023-04-06T10:39:07.468Z,98634.19
2023-04-06T10:44:09.430Z,98631.53
2023-04-06T10:49:13.405Z,98635.25
2023-04-06T10:54:17.229Z,98633.16
2023-04-06T10:59:23.029Z,98631.03
2023-04-06T11:04:26.403Z,98623.78
2023-04-06T11:09:30.441Z,98626.53
2023-04-06T11:14:32.400Z,98613.22
2023-04-06T11:19:35.600Z,98611.63
2023-04-06T11:24:37.572Z,98614.91
2023-04-06T11:29:39.782Z,98606.03
2023-04-06T11:34:42.098Z,98589.66
2023-04-06T11:39:52.718Z,98597.06
2023-04-06T11:45:01.422Z,98597.53
2023-04-06T11:50:14.332Z,98588.75
2023-04-06T11:55:18.895Z,98588.41
2023-04-06T12:00:22.240Z,98589.88
2023-04-06T12:05:25.003Z,98588.88
2023-04-06T12:10:26.977Z,98586.19
2023-04-06T12:15:29.145Z,98582.44
2023-04-06T12:20:32.426Z,98580.25
2023-04-06T12:25:35.027Z,98562.72
2023-04-06T12:30:37.717Z,98550.59
2023-04-06T12:35:40.022Z,98551.50
2023-04-06T12:40:42.163Z,98543.34
2023-04-06T12:45:45.432Z,98536.03
2023-04-06T12:50:59.580Z,98535.72
2023-04-06T12:56:03.044Z,98533.75
2023-04-06T13:01:08.803Z,98533.13
2023-04-06T13:06:12.127Z,98521.94
2023-04-06T13:11:14.231Z,98533.91
2023-04-06T13:16:17.177Z,98523.22
2023-04-06T13:21:20.153Z,98523.84
2023-04-06T13:26:22.438Z,98515.78
2023-04-06T13:31:24.367Z,98509.34
2023-04-06T13:36:27.769Z,98511.53
2023-04-06T13:41:29.674Z,98510.16
2023-04-06T13:46:31.652Z,98503.78
2023-04-06T13:51:33.639Z,98504.72
2023-04-06T13:56:35.657Z,98499.81
2023-04-06T14:01:38.350Z,98492.66
2023-04-06T14:06:40.719Z,98489.50
2023-04-06T14:11:42.617Z,98488.97
2023-04-06T14:16:45.199Z,98479.03
2023-04-06T14:21:47.074Z,98483.66
2023-04-06T14:26:49.092Z,98487.00
2023-04-06T14:31:50.938Z,98478.75
2023-04-06T14:36:52.938Z,98489.41
2023-04-06T14:41:54.768Z,98479.25
2023-04-06T14:46:56.764Z,98481.50
2023-04-06T14:52:00.598Z,98471.81
2023-04-06T14:57:02.997Z,98478.72
2023-04-06T15:02:05.040Z,98464.97
2023-04-06T15:07:06.939Z,98471.19
2023-04-06T15:12:08.885Z,98467.25
2023-04-06T15:17:10.833Z,98458.97
2023-04-06T15:22:13.892Z,98468.09
2023-04-06T15:27:15.874Z,98460.50
2023-04-06T15:32:17.799Z,98463.75
2023-04-06T15:37:19.632Z,98463.19
2023-04-06T15:42:21.520Z,98461.06
2023-04-06T15:47:23.389Z,98458.03
2023-04-06T15:52:25.296Z,98460.72
2023-04-06T15:57:27.294Z,98463.19
2023-04-06T16:02:29.405Z,98464.59
2023-04-06T16:07:33.012Z,98462.94
2023-04-06T16:12:34.920Z,98470.63
2023-04-06T16:17:36.935Z,98464.44
2023-04-06T16:22:38.895Z,98468.19
2023-04-06T16:27:40.745Z,98467.91
2023-04-06T16:32:43.521Z,98469.56
2023-04-06T16:37:46.643Z,98465.06
2023-04-06T16:42:48.741Z,98467.19
2023-04-06T16:47:50.849Z,98464.75
2023-04-06T16:52:52.793Z,98467.75
2023-04-06T16:57:55.998Z,98460.31
2023-04-06T17:02:58.097Z,98466.72
2023-04-06T17:08:00.520Z,98470.50
2023-04-06T17:13:02.408Z,98464.75
2023-04-06T17:18:04.648Z,98462.22
2023-04-06T17:23:06.659Z,98468.22
2023-04-06T17:28:08.800Z,98473.69
2023-04-06T17:33:10.714Z,98473.78
2023-04-06T17:38:12.587Z,98481.31
2023-04-06T17:43:14.418Z,98484.72
2023-04-06T17:48:16.398Z,98476.56
2023-04-06T17:53:20.416Z,98485.63
2023-04-06T17:58:22.605Z,98502.06
2023-04-06T18:03:24.482Z,98496.34
2023-04-06T18:08:26.412Z,98498.44
2023-04-06T18:13:28.270Z,98501.41
2023-04-06T18:18:30.506Z,98503.47
2023-04-06T18:23:34.165Z,98512.34
2023-04-06T18:28:36.293Z,98515.53
2023-04-06T18:33:38.149Z,98515.59
2023-04-06T18:38:44.923Z,98517.75
2023-04-06T18:43:46.929Z,98517.66
2023-04-06T18:48:48.822Z,98528.31
2023-04-06T18:53:50.806Z,98532.81
2023-04-06T18:58:52.774Z,98532.13
2023-04-06T19:03:56.026Z,98537.97
2023-04-06T19:08:59.008Z,98529.03
2023-04-06T19:14:01.054Z,98541.53
2023-04-06T19:19:02.943Z,98528.91
2023-04-06T19:24:05.070Z,98527.97
2023-04-06T19:29:06.913Z,98529.16
2023-04-06T19:34:08.781Z,98534.81
2023-04-06T19:39:10.695Z,98535.63
2023-04-06T19:44:12.661Z,98534.44
2023-04-06T19:49:14.692Z,98532.13
2023-04-06T19:54:16.533Z,98529.22
2023-04-06T19:59:18.634Z,98532.59
2023-04-06T20:04:20.534Z,98532.13
2023-04-06T20:09:22.928Z,98531.53
2023-04-06T20:14:25.935Z,98533.09
2023-04-06T20:19:27.991Z,98532.88
2023-04-06T20:24:31.291Z,98534.97
2023-04-06T20:29:33.261Z,98534.69
2023-04-06T20:34:35.269Z,98533.94
2023-04-06T20:39:37.194Z,98539.56
2023-04-06T20:44:39.032Z,98533.13
2023-04-06T20:49:40.884Z,98530.59
2023-04-06T20:54:42.670Z,98531.22
2023-04-06T20:59:45.404Z,98533.19
2023-04-06T21:04:47.467Z,98514.16
2023-04-06T21:09:49.431Z,98518.44
2023-04-06T21:14:51.267Z,98521.28
2023-04-06T21:19:53.467Z,98528.75
2023-04-06T21:24:55.273Z,98518.78
2023-04-06T21:29:57.074Z,98515.75
2023-04-06T21:34:59.063Z,98524.47
2023-04-06T21:40:02.430Z,98532.22
2023-04-06T21:45:04.522Z,98505.59
2023-04-06T21:50:06.851Z,98516.69
2023-04-06T21:55:09.044Z,98506.75
2023-04-06T22:00:12.116Z,98507.19
2023-04-06T22:05:19.721Z,98508.47
2023-04-06T22:10:21.830Z,98508.47
2023-04-06T22:15:23.707Z,98506.53
2023-04-06T22:20:25.606Z,98508.09
2023-04-06T22:25:27.591Z,98498.13
2023-04-06T22:30:29.443Z,98503.78
2023-04-06T22:35:31.385Z,98490.66
2023-04-06T22:40:33.450Z,98495.41
2023-04-06T22:45:35.513Z,98493.03
2023-04-06T22:50:37.347Z,98491.94
2023-04-06T22:55:41.160Z,98485.59
2023-04-06T23:00:43.031Z,98482.91
2023-04-06T23:05:45.859Z,98477.22
2023-04-06T23:10:47.675Z,98480.38
2023-04-06T23:15:49.680Z,98480.50
2023-04-06T23:20:51.738Z,98470.34
2023-04-06T23:25:53.535Z,98476.22
2023-04-06T23:30:55.334Z,98474.63
2023-04-06T23:35:57.194Z,98462.00
2023-04-06T23:40:59.006Z,98462.97
2023-04-06T23:46:01.841Z,98454.56
2023-04-06T23:51:03.850Z,98458.03
2023-04-06T23:56:06.126Z,98459.94
